Saranac, Michigan
Current Conditions -  °F | °C
As of 11:14 AM on Monday 24 Nov 2014 (Local Time) from KY70 Reporting Station
Drizzle Drizzle  
Wind Chill: 51°   Ceiling: 600
Heat Index: 51°   Visibility: 5mi
Dew Point: 51°   Wind: 6mph
Humidity: 99%   Direction: 240°WSW
Pressure: 29.05"   Gusts: NA
Location:  42.93°N, 85.21°W
Report Text: KY70 241614Z AUTO 24005KT 5SM -DZ OVC006 11/11 A2905 RMK AO2 T01070105
Loading
Personal Weather Stations






























Interactive Weather Map New forecast layout! Learn more

10-Day Weather Forecast

Advertisements
Track Severe Weather on mobile